首页
METAR-TAF:

METAR-TAF

机场 :

Texarkana Regional Airport-Webb Field

Texarkana, 阿肯色州, 美国

纬度: 33-27-22N, 经度: 093-59-15W, 海拔: 118米

当前天气观测

该预报发布于36分钟前的03:53 UTC
风速7节,风向东转东北
温度 19°C
湿度 94%
气压 1010 hPa
能見度: 16.1公里
少量云层高于300英尺
少量云层高于7000英尺

METAR: KTXK 250353Z AUTO 07007KT 10SM FEW003 FEW070 19/18 A2982 RMK AO2 RAB02E16 SLP091 P0000 T01890178

时间: 23:29 (04:29 UTC)

预报

该预报发布于5小时和9分钟前的23:20 UTC
预报有效从25日的 00点(UTC)到 25日的 24点(UTC)
风速10节,风向南转南东
能見度: 10公里
散云层高于4000英尺, 积雨云.
多云层高于10000英尺
多云层高于25000英尺
阵雨, 附近有雷暴
短暂存在
从 25日的 00点(UTC)到 25日的 02点(UTC)
风速15节,风向多变,有时为25节阵风
能見度: 4.8公里
多云层高于3500英尺, 积雨云.
雷暴, 雨, 轻雾
从 25日的 0200点(UTC)
风速6节,风向东南
能見度: 10公里
阴天层高于3500英尺, 积雨云.
雨, 附近有雷暴
从 25日的 0400点(UTC)
风速7节,风向南转南东
能見度: 10公里
散云层高于4500英尺
散云层高于12000英尺
多云层高于25000英尺
从 25日的 1000点(UTC)
风速8节,风向南转南东
能見度: 10公里
多云层高于1500英尺
阴天层高于2500英尺
从 25日的 1600点(UTC)
风速11节,风向,有时为17节阵风
能見度: 10公里
多云层高于5000英尺
从 25日的 1800点(UTC)
风速10节,风向南转西南
能見度: 10公里
多云层高于5000英尺, 积雨云.
附近有雷暴

TAF: KTXK 242320Z 2500/2524 16010KT P6SM SHRA VCTS SCT040CB BKN100 BKN250 TEMPO 2500/2502 VRB15G25KT 3SM TSRA BR BKN035CB FM250200 14006KT P6SM RA VCTS OVC035CB FM250400 15007KT P6SM SCT045 SCT120 BKN250 FM251000 16008KT P6SM BKN015 OVC025 FM251600 18011G17KT P6SM BKN050 FM251800 20010KT P6SM VCTS BKN050CB

超过4000个机场的气象观测和天气预报(METAR&TAF报告)。

可查询的气象台以黄色和红色小点在地图上表示。

将鼠标移到小点上方,可查看气象台名称。

然后点击查看天气观测和预报。

如需切换地图:点击带黑十字的绿色按钮放大地图;点击带横线的绿色按钮缩小地图;或者点击绿色箭头查看邻近地区的地图。


METAR-TAF: